Time;durP1;ratioP1;P1;durP2;ratioP2;P2;SDS_P1;SDS_P2;PMS_P1;PMS_P2;Temp;Humidity;BMP_temperature;BMP_pressure;BME280_temperature;BME280_humidity;BME280_pressure;Samples;Min_cycle;Max_cycle;Signal;HPM_P1;HPM_P2
2022/07/11 00:00:23;;;;;;;3.97;1.15;;;;;;;9.30;77.95;96713.84;2033539;29;20568;-42
2022/07/11 00:01:25;;;;;;;3.65;1.02;;;;;;;9.32;77.95;96718.09;2024798;29;20059;-43
2022/07/11 00:02:26;;;;;;;4.40;1.13;;;;;;;9.30;77.71;96716.44;2025247;29;20414;-43
2022/07/11 00:03:28;;;;;;;2.95;1.20;;;;;;;9.30;77.79;96717.28;2024642;29;20406;-42
2022/07/11 00:04:29;;;;;;;2.38;1.10;;;;;;;9.31;77.90;96711.22;2024672;29;20056;-43
2022/07/11 00:05:31;;;;;;;1.73;1.00;;;;;;;9.21;77.74;96704.63;2016986;29;20476;-43
2022/07/11 00:06:32;;;;;;;2.55;1.27;;;;;;;9.21;78.40;96717.59;2025453;29;20044;-45
2022/07/11 00:07:33;;;;;;;2.58;1.25;;;;;;;9.25;78.11;96717.44;2032621;29;20048;-43
2022/07/11 00:08:34;;;;;;;2.53;1.10;;;;;;;9.25;78.29;96708.84;2032460;29;20044;-43
2022/07/11 00:09:36;;;;;;;4.18;1.10;;;;;;;9.23;79.03;96708.03;2032530;29;20051;-45
2022/07/11 00:10:37;;;;;;;2.50;1.30;;;;;;;9.23;78.81;96713.22;2032945;29;20060;-42
2022/07/11 00:11:38;;;;;;;2.58;1.30;;;;;;;9.19;78.75;96703.81;2017241;29;20049;-43
2022/07/11 00:12:39;;;;;;;3.88;1.15;;;;;;;9.11;79.24;96710.97;2017187;29;20048;-43
2022/07/11 00:13:41;;;;;;;8.65;1.52;;;;;;;9.13;79.68;96706.59;2017440;29;20056;-44
2022/07/11 00:14:42;;;;;;;5.47;1.80;;;;;;;9.13;79.42;96709.19;2017091;29;20064;-45
2022/07/11 00:15:43;;;;;;;3.67;1.45;;;;;;;9.06;79.65;96700.75;2025193;29;20044;-44
2022/07/11 00:16:44;;;;;;;6.88;1.65;;;;;;;9.09;79.36;96712.75;2025203;29;20064;-44
2022/07/11 00:17:46;;;;;;;2.05;0.98;;;;;;;9.11;79.67;96710.97;2017662;29;20078;-42
2022/07/11 00:18:47;;;;;;;3.92;1.27;;;;;;;9.11;78.99;96704.03;2017374;29;20052;-44
2022/07/11 00:19:48;;;;;;;3.33;1.30;;;;;;;9.14;79.54;96708.28;2031918;29;20052;-44
2022/07/11 00:20:50;;;;;;;7.22;1.40;;;;;;;9.09;79.32;96703.25;2039955;29;20469;-43
2022/07/11 00:21:51;;;;;;;4.78;1.50;;;;;;;9.06;79.64;96698.16;2032651;29;20052;-44
2022/07/11 00:22:52;;;;;;;2.30;1.33;;;;;;;9.05;79.57;96709.41;2032461;29;20707;-43
2022/07/11 00:23:53;;;;;;;4.25;1.25;;;;;;;8.98;79.72;96701.00;2024570;29;20060;-43
2022/07/11 00:24:55;;;;;;;4.10;1.30;;;;;;;8.96;79.85;96696.75;2024793;29;20056;-45
2022/07/11 00:25:56;;;;;;;2.85;1.27;;;;;;;8.96;79.62;96700.19;2028717;29;20048;-43
2022/07/11 00:26:57;;;;;;;2.75;1.33;;;;;;;8.93;79.97;96694.25;2025009;29;20446;-43
2022/07/11 00:27:58;;;;;;;3.95;1.30;;;;;;;8.95;79.75;96700.22;2017100;29;20060;-44
2022/07/11 00:29:00;;;;;;;2.50;1.30;;;;;;;8.94;80.05;96701.97;2017392;29;20537;-42
2022/07/11 00:30:01;;;;;;;3.92;1.70;;;;;;;8.96;79.89;96701.94;2025079;29;20068;-44
2022/07/11 00:31:02;;;;;;;5.78;1.33;;;;;;;8.90;80.12;96695.19;2033051;29;20058;-43
2022/07/11 00:32:03;;;;;;;2.53;1.17;;;;;;;8.92;79.85;96695.97;2038464;29;20059;-44
2022/07/11 00:33:05;;;;;;;4.10;1.60;;;;;;;8.87;79.95;96697.84;2040836;29;20047;-43
2022/07/11 00:34:06;;;;;;;5.97;1.50;;;;;;;8.86;80.19;96692.72;2024452;29;20059;-42
2022/07/11 00:35:07;;;;;;;2.70;1.10;;;;;;;8.78;80.13;96700.72;2032374;29;20059;-44
2022/07/11 00:36:09;;;;;;;4.93;1.30;;;;;;;8.80;80.10;96699.78;2025089;29;20063;-43
2022/07/11 00:37:10;;;;;;;4.40;1.30;;;;;;;8.81;80.33;96700.63;2024850;29;20092;-43
2022/07/11 00:38:11;;;;;;;3.67;1.77;;;;;;;8.74;80.52;96699.09;2017394;29;20049;-44
2022/07/11 00:39:12;;;;;;;2.50;1.42;;;;;;;8.77;80.90;96704.22;2032693;29;20056;-42
2022/07/11 00:40:14;;;;;;;3.00;1.45;;;;;;;8.69;80.95;96701.00;2047990;29;20446;-43
2022/07/11 00:41:16;;;;;;;4.18;1.50;;;;;;;8.68;81.20;96704.47;2040376;29;20497;-42
2022/07/11 00:42:18;;;;;;;3.92;1.90;;;;;;;8.67;80.80;96695.84;2040396;29;20406;-43
2022/07/11 00:43:28;;;;;;;4.32;1.48;;;;;;;8.70;80.86;96700.94;2039928;29;20059;-42
2022/07/11 00:44:29;;;;;;;4.32;1.67;;;;;;;8.70;80.98;96700.09;2048188;29;20047;-46
2022/07/11 00:45:31;;;;;;;4.72;1.50;;;;;;;8.65;81.30;96697.63;2040315;29;20047;-43
2022/07/11 00:46:32;;;;;;;3.47;1.45;;;;;;;8.66;81.36;96699.34;2040545;29;20048;-43
2022/07/11 00:47:33;;;;;;;2.83;1.23;;;;;;;8.65;81.78;96702.81;2040350;29;20047;-44
2022/07/11 00:48:35;;;;;;;5.07;1.48;;;;;;;8.63;81.48;96698.56;2024812;29;20051;-44
2022/07/11 00:49:36;;;;;;;5.68;1.52;;;;;;;8.61;82.25;96701.22;2040774;29;20047;-42
2022/07/11 00:50:37;;;;;;;4.10;1.50;;;;;;;8.61;81.90;96703.81;2040160;29;20040;-42
2022/07/11 00:51:39;;;;;;;6.88;1.95;;;;;;;8.62;82.07;96705.47;2024810;29;20044;-43
2022/07/11 00:52:40;;;;;;;5.55;1.52;;;;;;;8.58;82.71;96709.91;2032460;29;20052;-44
2022/07/11 00:53:42;;;;;;;4.57;1.88;;;;;;;8.63;82.58;96708.91;2032678;29;20060;-43
2022/07/11 00:54:44;;;;;;;4.30;1.55;;;;;;;8.67;82.78;96706.19;2040022;29;20098;-43
2022/07/11 00:55:45;;;;;;;2.80;1.50;;;;;;;8.77;83.16;96704.22;2032436;29;20052;-44
2022/07/11 00:56:46;;;;;;;3.95;1.40;;;;;;;8.72;82.93;96704.34;2017067;29;20519;-45
2022/07/11 00:57:48;;;;;;;4.68;1.80;;;;;;;8.71;83.44;96699.19;2024503;29;20079;-43
2022/07/11 00:58:49;;;;;;;4.75;1.60;;;;;;;8.63;83.70;96698.56;2024736;29;20151;-43
2022/07/11 00:59:50;;;;;;;4.50;1.60;;;;;;;8.58;83.41;96702.13;2031927;29;20057;-43
2022/07/11 01:00:52;;;;;;;3.95;1.50;;;;;;;8.55;83.93;96703.94;2032383;29;20055;-43
2022/07/11 01:01:53;;;;;;;3.38;1.80;;;;;;;8.52;84.05;96702.28;2009528;29;20054;-46
2022/07/11 01:02:54;;;;;;;5.47;1.77;;;;;;;8.50;84.01;96703.22;2024922;29;20060;-46
2022/07/11 01:03:55;;;;;;;3.75;1.50;;;;;;;8.47;84.57;96711.06;2040080;29;20144;-43
2022/07/11 01:04:57;;;;;;;6.65;2.00;;;;;;;8.44;84.35;96706.84;2032372;29;20052;-44
2022/07/11 01:05:58;;;;;;;5.55;1.70;;;;;;;8.38;84.58;96699.22;2024434;29;20052;-43
2022/07/11 01:06:59;;;;;;;3.67;1.60;;;;;;;8.36;84.80;96701.81;2024909;29;20060;-41
2022/07/11 01:08:00;;;;;;;3.60;1.45;;;;;;;8.34;84.99;96702.75;2040307;29;20048;-43
2022/07/11 01:09:02;;;;;;;7.35;1.65;;;;;;;8.28;84.81;96696.00;2032467;29;20048;-43
2022/07/11 01:10:03;;;;;;;2.92;1.38;;;;;;;8.30;85.04;96695.97;2040022;29;20067;-43
2022/07/11 01:11:05;;;;;;;2.78;1.50;;;;;;;8.27;85.22;96703.84;2040462;29;20043;-42
2022/07/11 01:12:07;;;;;;;3.70;1.77;;;;;;;8.27;85.05;96698.66;2032118;29;20711;-43
2022/07/11 01:13:08;;;;;;;2.60;1.77;;;;;;;8.24;85.36;96696.16;2032376;29;20127;-43
2022/07/11 01:14:09;;;;;;;3.90;1.83;;;;;;;8.20;85.51;96694.53;2024693;29;20056;-43
2022/07/11 01:15:13;;;;;;;4.43;1.77;;;;;;;8.16;86.03;96691.19;2024517;29;20051;-43
2022/07/11 01:16:16;;;;;;;6.32;1.88;;;;;;;8.14;86.06;96695.53;2031998;29;20063;-43
2022/07/11 01:17:17;;;;;;;3.20;1.58;;;;;;;8.08;85.93;96693.13;2033175;29;20059;-45
2022/07/11 01:18:18;;;;;;;2.97;1.48;;;;;;;8.10;86.45;96697.38;2024950;29;20049;-42
2022/07/11 01:19:19;;;;;;;7.57;2.05;;;;;;;8.09;86.48;96694.81;2024644;29;20061;-43
2022/07/11 01:20:22;;;;;;;4.53;1.60;;;;;;;8.10;86.93;96692.19;2024431;29;20048;-45
2022/07/11 01:21:30;;;;;;;4.45;1.65;;;;;;;8.09;86.90;96697.41;2017492;29;20609;-44
2022/07/11 01:22:32;;;;;;;4.25;1.90;;;;;;;8.01;87.00;96695.00;2031908;29;20048;-45
2022/07/11 01:23:33;;;;;;;5.95;1.85;;;;;;;7.99;87.14;96694.19;2024989;29;20041;-41
2022/07/11 01:24:34;;;;;;;4.63;1.75;;;;;;;8.02;87.68;96696.72;2024574;29;20052;-43
2022/07/11 01:25:35;;;;;;;4.25;1.70;;;;;;;7.99;87.00;96688.19;2016892;29;20045;-45
2022/07/11 01:26:36;;;;;;;5.05;2.13;;;;;;;8.02;87.01;96688.09;2024747;29;20052;-41
2022/07/11 01:27:37;;;;;;;4.03;1.90;;;;;;;7.98;87.25;96687.34;2040766;29;20043;-44
2022/07/11 01:28:39;;;;;;;5.05;1.90;;;;;;;8.00;86.95;96685.56;2039792;29;20043;-42
2022/07/11 01:29:40;;;;;;;3.92;1.80;;;;;;;8.04;86.67;96686.31;2040484;29;20413;-44
2022/07/11 01:30:41;;;;;;;3.83;1.85;;;;;;;8.02;86.39;96688.09;2024172;29;20049;-42
2022/07/11 01:31:43;;;;;;;4.47;1.70;;;;;;;8.02;86.43;96681.22;2028018;29;20044;-44
2022/07/11 01:32:44;;;;;;;6.07;2.00;;;;;;;7.99;86.56;96686.44;2034800;29;20047;-42
2022/07/11 01:33:45;;;;;;;3.63;1.73;;;;;;;7.99;86.42;96683.84;2027734;29;20459;-43
2022/07/11 01:34:47;;;;;;;5.13;2.00;;;;;;;7.91;86.80;96686.66;2019136;29;20071;-43
2022/07/11 01:35:48;;;;;;;5.28;2.15;;;;;;;7.90;86.78;96681.50;2027323;29;20048;-44
2022/07/11 01:36:49;;;;;;;2.25;1.60;;;;;;;7.90;86.76;96677.19;2027090;29;20056;-43
2022/07/11 01:37:50;;;;;;;5.93;1.60;;;;;;;7.90;86.68;96686.69;2027417;29;20123;-43
2022/07/11 01:38:51;;;;;;;7.57;1.98;;;;;;;7.90;86.99;96678.94;2034551;29;20044;-43
2022/07/11 01:39:53;;;;;;;6.07;1.65;;;;;;;7.90;87.05;96682.34;2034879;29;20525;-42
2022/07/11 01:40:54;;;;;;;4.05;1.85;;;;;;;7.90;86.97;96671.16;2034777;29;20457;-45
2022/07/11 01:41:57;;;;;;;3.53;1.67;;;;;;;7.90;86.86;96673.75;2034706;29;20071;-43
2022/07/11 01:42:58;;;;;;;4.22;1.60;;;;;;;7.95;86.61;96672.75;2034976;29;20441;-44
2022/07/11 01:44:00;;;;;;;4.28;1.80;;;;;;;7.95;86.42;96677.06;2027424;29;20052;-42
2022/07/11 01:45:01;;;;;;;4.05;1.58;;;;;;;7.98;85.94;96671.81;2027612;29;20052;-43
2022/07/11 01:46:02;;;;;;;3.70;1.90;;;;;;;7.97;86.27;96677.03;2027195;29;20515;-42
2022/07/11 01:47:03;;;;;;;2.88;1.58;;;;;;;7.91;86.47;96667.69;2027750;29;20056;-42
2022/07/11 01:48:05;;;;;;;5.18;2.10;;;;;;;7.91;86.53;96667.69;2034945;29;20585;-44
2022/07/11 01:49:06;;;;;;;3.75;2.08;;;;;;;7.98;86.97;96674.41;2035269;29;20051;-42
2022/07/11 01:50:07;;;;;;;4.63;1.90;;;;;;;7.94;86.76;96670.22;2034185;29;20056;-43
2022/07/11 01:51:08;;;;;;;3.83;1.88;;;;;;;7.97;86.74;96680.47;2035313;29;20525;-46
2022/07/11 01:52:10;;;;;;;2.97;1.75;;;;;;;7.92;86.66;96679.75;2042456;29;20056;-43
2022/07/11 01:53:11;;;;;;;5.70;2.20;;;;;;;7.86;86.79;96669.56;2034818;29;20048;-43
2022/07/11 01:54:12;;;;;;;5.93;1.85;;;;;;;7.83;86.95;96673.06;2019337;29;20055;-45
2022/07/11 01:55:14;;;;;;;3.95;1.95;;;;;;;7.86;86.65;96670.41;2034476;29;20048;-43
2022/07/11 01:56:15;;;;;;;4.50;1.90;;;;;;;7.95;86.35;96674.47;2035387;29;20056;-44
2022/07/11 01:57:16;;;;;;;4.28;1.65;;;;;;;7.98;85.98;96674.41;2035438;29;20059;-44
2022/07/11 01:58:17;;;;;;;4.05;1.73;;;;;;;7.99;86.26;96670.06;2043047;29;20058;-44
2022/07/11 01:59:19;;;;;;;5.20;2.30;;;;;;;7.97;86.02;96675.31;2042122;29;20052;-45
2022/07/11 02:00:20;;;;;;;4.43;1.80;;;;;;;7.97;86.25;96675.31;2034554;29;20044;-43
2022/07/11 02:01:21;;;;;;;4.30;1.88;;;;;;;7.92;86.44;96671.97;2026561;29;20056;-44
2022/07/11 02:02:22;;;;;;;5.00;1.88;;;;;;;7.97;85.90;96675.31;2026363;29;20057;-43
2022/07/11 02:03:23;;;;;;;5.53;2.00;;;;;;;7.89;86.13;96672.91;2035238;29;20062;-44
2022/07/11 02:04:24;;;;;;;4.40;1.77;;;;;;;7.92;85.74;96674.56;2050536;28;20050;-43
2022/07/11 02:05:26;;;;;;;5.38;1.50;;;;;;;7.91;85.92;96676.31;2026865;29;20055;-43
2022/07/11 02:06:27;;;;;;;3.85;2.00;;;;;;;7.89;85.80;96672.06;2034677;29;20040;-42
2022/07/11 02:08:49;;;;;;;3.63;1.52;;;;;;;7.84;86.22;96668.75;2027442;29;20051;-44
2022/07/11 02:09:50;;;;;;;3.30;1.80;;;;;;;7.89;86.13;96667.75;2037303;29;20052;-43
2022/07/11 02:10:52;;;;;;;7.10;1.90;;;;;;;8.00;85.95;96674.38;2042560;29;20055;-43
2022/07/11 02:11:53;;;;;;;4.60;2.22;;;;;;;7.97;86.13;96664.13;2034522;29;20537;-46
2022/07/11 02:12:56;;;;;;;5.15;2.10;;;;;;;7.98;86.09;96670.97;2026880;29;20051;-42
2022/07/11 02:13:57;;;;;;;7.13;1.90;;;;;;;7.96;86.22;96673.59;2042741;29;20059;-43
2022/07/11 02:14:58;;;;;;;5.97;2.25;;;;;;;7.98;86.22;96668.38;2034944;29;20052;-42
2022/07/11 02:16:00;;;;;;;4.78;2.13;;;;;;;7.93;85.92;96660.75;2027177;29;20423;-45
2022/07/11 02:17:01;;;;;;;3.10;1.75;;;;;;;8.04;85.56;96663.88;2042550;29;20449;-42
2022/07/11 02:18:02;;;;;;;4.70;1.80;;;;;;;7.97;86.09;96664.13;2042682;29;20055;-44
2022/07/11 02:19:04;;;;;;;5.13;2.03;;;;;;;7.89;85.94;96661.72;2026214;29;20051;-42
2022/07/11 02:20:05;;;;;;;3.95;2.13;;;;;;;7.85;86.03;96666.09;2034784;29;20059;-43
2022/07/11 02:21:07;;;;;;;5.50;1.90;;;;;;;7.90;85.80;96663.41;2034752;29;20445;-42
2022/07/11 02:22:10;;;;;;;3.80;1.90;;;;;;;7.87;85.79;96663.50;2019386;29;20064;-43
2022/07/11 02:23:12;;;;;;;3.42;1.80;;;;;;;7.92;85.86;96666.81;2027363;29;20049;-44
2022/07/11 02:24:13;;;;;;;5.22;1.95;;;;;;;7.98;85.54;96666.66;2042876;29;20048;-41
2022/07/11 02:25:15;;;;;;;6.22;2.42;;;;;;;8.09;85.08;96668.94;2050042;29;20047;-46
2022/07/11 02:26:16;;;;;;;4.88;1.98;;;;;;;8.05;85.08;96672.53;2048413;29;20559;-46
2022/07/11 02:27:17;;;;;;;3.63;1.95;;;;;;;8.01;84.95;96669.16;2034841;29;20055;-43
2022/07/11 02:28:19;;;;;;;7.05;2.53;;;;;;;8.01;84.88;96676.06;2034932;29;20056;-43
2022/07/11 02:29:22;;;;;;;4.55;2.40;;;;;;;8.06;84.36;96669.88;2034612;29;20055;-43
2022/07/11 02:30:23;;;;;;;4.30;2.00;;;;;;;8.03;84.64;96667.38;2035055;29;20047;-43
2022/07/11 02:31:24;;;;;;;6.25;2.28;;;;;;;8.00;84.53;96674.38;2034738;29;20442;-45
2022/07/11 02:32:25;;;;;;;3.53;1.98;;;;;;;7.94;84.98;96675.38;2019799;29;20060;-42
2022/07/11 02:33:27;;;;;;;3.10;1.70;;;;;;;7.88;85.46;96675.53;2019496;29;20057;-44
2022/07/11 02:34:28;;;;;;;5.35;2.22;;;;;;;7.86;85.47;96666.97;2026613;29;20048;-43
2022/07/11 02:35:29;;;;;;;4.45;1.98;;;;;;;7.89;85.55;96669.47;2026794;29;20541;-42
2022/07/11 02:36:30;;;;;;;4.22;2.00;;;;;;;7.87;85.93;96672.09;2019652;29;20037;-42
2022/07/11 02:37:31;;;;;;;3.97;2.10;;;;;;;7.85;85.71;96662.69;2027418;29;20049;-43
2022/07/11 02:38:32;;;;;;;3.88;1.85;;;;;;;7.82;85.87;96661.00;2034911;29;20138;-46
2022/07/11 02:39:34;;;;;;;4.25;2.25;;;;;;;7.86;85.45;96666.97;2027143;29;20056;-42
2022/07/11 02:40:35;;;;;;;4.18;1.98;;;;;;;7.79;85.76;96666.28;2018752;29;20538;-45
2022/07/11 02:41:36;;;;;;;3.58;2.20;;;;;;;7.80;85.80;96664.53;2018981;29;20581;-43
2022/07/11 02:42:37;;;;;;;3.40;2.03;;;;;;;7.83;85.99;96667.91;2011505;29;20041;-43
2022/07/11 02:43:38;;;;;;;4.82;2.47;;;;;;;7.81;85.74;96663.66;2017585;29;20045;-43
2022/07/11 02:44:40;;;;;;;5.93;2.28;;;;;;;7.74;86.40;96663.78;2033423;29;20051;-43
2022/07/11 02:45:42;;;;;;;4.18;2.15;;;;;;;7.76;86.37;96666.34;2033537;29;20524;-43
2022/07/11 02:46:43;;;;;;;4.75;2.00;;;;;;;7.74;86.40;96660.38;2033225;29;20051;-44
2022/07/11 02:47:45;;;;;;;3.65;1.90;;;;;;;7.71;86.45;96666.47;2025733;29;20060;-42
2022/07/11 02:48:46;;;;;;;4.90;1.92;;;;;;;7.68;86.24;96668.28;2025704;29;20478;-43
2022/07/11 02:49:48;;;;;;;2.80;1.65;;;;;;;7.65;86.54;96666.63;2018201;29;20044;-45
2022/07/11 02:50:49;;;;;;;3.47;2.00;;;;;;;7.66;86.49;96659.72;2026019;29;20063;-44
2022/07/11 02:51:51;;;;;;;5.15;1.80;;;;;;;7.64;86.82;96664.06;2040639;29;20085;-43
2022/07/11 02:52:52;;;;;;;4.47;1.98;;;;;;;7.64;86.59;96662.31;2033547;29;20048;-42
2022/07/11 02:53:53;;;;;;;4.13;1.88;;;;;;;7.64;86.72;96664.91;2025452;29;20545;-43
2022/07/11 02:54:55;;;;;;;6.95;2.55;;;;;;;7.60;86.92;96667.63;2025741;29;20056;-41
2022/07/11 02:55:56;;;;;;;4.90;1.80;;;;;;;7.56;87.15;96663.41;2017549;29;20435;-43
2022/07/11 02:56:57;;;;;;;4.55;1.83;;;;;;;7.56;87.05;96659.06;2025844;29;20111;-42
2022/07/11 02:57:59;;;;;;;3.35;2.08;;;;;;;7.55;87.17;96662.56;2017881;29;20056;-42
2022/07/11 02:59:00;;;;;;;3.97;2.30;;;;;;;7.57;87.10;96662.53;2017810;29;20530;-43
2022/07/11 03:00:03;;;;;;;3.50;1.95;;;;;;;7.62;86.65;96666.72;2017496;29;20060;-42
2022/07/11 03:01:05;;;;;;;2.85;1.90;;;;;;;7.69;86.55;96660.47;2025856;29;20045;-43
2022/07/11 03:02:06;;;;;;;4.45;2.15;;;;;;;7.67;86.70;96656.22;2018092;29;20056;-44
2022/07/11 03:03:07;;;;;;;5.93;2.13;;;;;;;7.64;86.64;96657.16;2009614;29;20531;-43
2022/07/11 03:04:09;;;;;;;4.72;2.00;;;;;;;7.62;86.62;96658.94;2018179;29;20048;-42
2022/07/11 03:05:11;;;;;;;3.13;1.98;;;;;;;7.58;87.07;96657.31;2033522;29;20055;-44
2022/07/11 03:06:12;;;;;;;3.40;1.80;;;;;;;7.54;87.07;96660.00;2033076;29;20051;-44
2022/07/11 03:07:13;;;;;;;7.85;2.17;;;;;;;7.57;86.82;96654.78;2024882;29;20048;-43
2022/07/11 03:08:14;;;;;;;11.23;2.67;;;;;;;7.64;86.83;96656.31;2032911;29;20063;-43
2022/07/11 03:09:15;;;;;;;5.00;2.63;;;;;;;7.65;87.07;96656.28;2017222;29;20049;-42
2022/07/11 03:10:17;;;;;;;4.82;2.60;;;;;;;7.67;86.66;96656.22;2018538;29;20053;-42
2022/07/11 03:11:19;;;;;;;6.95;2.30;;;;;;;7.73;86.69;96656.94;2025377;29;20055;-42
2022/07/11 03:12:20;;;;;;;4.90;2.30;;;;;;;7.77;86.22;96657.69;2025711;29;20563;-46
2022/07/11 03:13:21;;;;;;;5.15;1.98;;;;;;;7.81;86.45;96658.50;2025427;29;20060;-43
2022/07/11 03:14:23;;;;;;;5.50;2.20;;;;;;;7.77;86.46;96657.69;2025700;29;20060;-44
2022/07/11 03:15:24;;;;;;;4.70;2.08;;;;;;;7.74;86.71;96657.78;2032721;29;20055;-43
2022/07/11 03:16:25;;;;;;;3.22;2.20;;;;;;;7.68;86.44;96660.53;2033813;29;20048;-42
2022/07/11 03:17:26;;;;;;;4.15;2.20;;;;;;;7.67;86.52;96653.63;2025336;29;20055;-46
2022/07/11 03:18:28;;;;;;;6.57;2.08;;;;;;;7.69;86.45;96662.22;2025530;29;20524;-43
2022/07/11 03:19:29;;;;;;;4.97;2.25;;;;;;;7.66;86.42;96655.38;2025057;29;20052;-43
2022/07/11 03:20:31;;;;;;;4.78;2.30;;;;;;;7.66;86.33;96651.97;2025140;29;20056;-45
2022/07/11 03:21:32;;;;;;;4.63;2.47;;;;;;;7.70;86.23;96649.25;2025123;29;20044;-42
2022/07/11 03:22:33;;;;;;;3.60;2.22;;;;;;;7.79;86.00;96652.50;2033340;29;20518;-43
2022/07/11 03:23:34;;;;;;;3.17;1.75;;;;;;;7.83;85.55;96654.09;2033073;29;20056;-42
2022/07/11 03:24:36;;;;;;;3.92;2.22;;;;;;;7.76;85.58;96647.41;2033256;29;20434;-44
2022/07/11 03:25:39;;;;;;;4.43;2.05;;;;;;;7.73;85.44;96646.59;2018698;29;20060;-43
2022/07/11 03:26:40;;;;;;;5.07;2.20;;;;;;;7.75;85.88;96651.72;2026071;29;20051;-42
2022/07/11 03:27:41;;;;;;;9.10;2.67;;;;;;;7.70;85.99;96651.84;2033279;29;20384;-43
2022/07/11 03:28:42;;;;;;;3.97;1.90;;;;;;;7.74;85.96;96645.69;2033134;29;20052;-42
2022/07/11 03:29:44;;;;;;;4.78;2.50;;;;;;;7.69;86.15;96647.53;2032733;29;20047;-43
2022/07/11 03:30:45;;;;;;;6.90;2.08;;;;;;;7.66;86.12;96654.53;2033266;29;20051;-45
2022/07/11 03:31:46;;;;;;;4.38;2.17;;;;;;;7.63;86.36;96655.47;2038023;29;20056;-43
2022/07/11 03:32:48;;;;;;;3.65;2.20;;;;;;;7.60;86.69;96657.28;2025244;29;20079;-43
2022/07/11 03:33:49;;;;;;;4.82;2.25;;;;;;;7.56;86.45;96653.91;2033327;29;20044;-43
2022/07/11 03:37:12;;;;;;;4.72;2.10;;;;;;;7.61;86.33;96646.88;2041404;29;20543;-42
2022/07/11 03:38:17;;;;;;;4.47;2.42;;;;;;;7.65;86.49;96655.44;2041040;29;20055;-43
2022/07/11 03:39:18;;;;;;;6.00;2.25;;;;;;;7.69;86.72;96654.47;2041001;29;20058;-43
2022/07/11 03:40:20;;;;;;;4.80;2.38;;;;;;;7.68;86.42;96652.78;2026101;29;20060;-43
2022/07/11 03:41:21;;;;;;;3.75;2.05;;;;;;;7.68;86.48;96651.03;2017263;29;20052;-44
2022/07/11 03:42:22;;;;;;;4.43;2.33;;;;;;;7.70;86.84;96648.41;2017222;29;20056;-42
2022/07/11 03:43:23;;;;;;;7.13;2.78;;;;;;;7.76;86.21;96650.84;2025554;29;20078;-45
2022/07/11 03:44:25;;;;;;;3.88;2.20;;;;;;;7.74;86.56;96650.88;2040938;29;20535;-43
2022/07/11 03:45:27;;;;;;;3.15;2.00;;;;;;;7.68;86.46;96658.78;2040845;29;20413;-44
2022/07/11 03:46:28;;;;;;;5.63;2.53;;;;;;;7.70;86.35;96651.84;2040662;29;20047;-42
2022/07/11 03:47:29;;;;;;;5.70;2.47;;;;;;;7.73;86.02;96656.94;2040833;29;20047;-45
2022/07/11 03:48:31;;;;;;;8.98;2.55;;;;;;;7.73;85.91;96654.34;2025706;29;20422;-42
2022/07/11 03:49:32;;;;;;;5.10;2.20;;;;;;;7.73;86.03;96654.34;2025581;29;20045;-45
2022/07/11 03:50:34;;;;;;;5.00;2.20;;;;;;;7.79;85.94;96648.16;2033579;29;20055;-42
2022/07/11 03:51:35;;;;;;;3.40;2.03;;;;;;;7.76;85.91;96650.00;2040992;29;20043;-45
2022/07/11 03:52:37;;;;;;;5.90;1.90;;;;;;;7.78;85.87;96664.59;2040870;29;20054;-42
2022/07/11 03:53:38;;;;;;;5.57;2.42;;;;;;;7.81;85.91;96651.56;2033373;29;20043;-43
2022/07/11 03:54:39;;;;;;;6.82;2.50;;;;;;;7.81;85.95;96658.50;2025042;29;20055;-44
2022/07/11 03:55:40;;;;;;;3.13;2.17;;;;;;;7.78;86.17;96655.97;2025083;29;20049;-46
2022/07/11 03:56:41;;;;;;;8.20;1.95;;;;;;;7.76;85.84;96652.59;2032981;29;20044;-45
2022/07/11 03:57:43;;;;;;;5.80;2.55;;;;;;;7.76;86.23;96656.00;2040759;29;20070;-45
2022/07/11 03:58:44;;;;;;;4.38;2.20;;;;;;;7.76;86.07;96662.94;2025228;29;20045;-44
2022/07/11 03:59:45;;;;;;;5.65;2.70;;;;;;;7.80;86.05;96652.44;2017906;29;20053;-43
2022/07/11 04:00:46;;;;;;;4.65;2.45;;;;;;;7.78;86.20;96654.25;2025186;29;20052;-47
2022/07/11 04:01:48;;;;;;;4.80;2.40;;;;;;;7.74;86.40;96657.78;2032400;29;20056;-43
2022/07/11 04:02:49;;;;;;;6.32;2.00;;;;;;;7.76;86.20;96656.00;2032851;29;20059;-45
2022/07/11 04:03:51;;;;;;;5.53;2.22;;;;;;;7.78;86.05;96656.84;2033133;29;20051;-45
2022/07/11 04:04:52;;;;;;;4.82;2.30;;;;;;;7.81;85.95;96650.72;2033074;29;20556;-45
2022/07/11 04:05:53;;;;;;;6.57;2.42;;;;;;;7.81;85.96;96654.16;2025605;29;20052;-44
2022/07/11 04:06:54;;;;;;;6.65;2.78;;;;;;;7.86;86.02;96656.63;2025251;29;20165;-47
2022/07/11 04:07:57;;;;;;;5.95;2.15;;;;;;;7.83;85.67;96649.81;2033121;29;20048;-44
2022/07/11 04:08:58;;;;;;;3.60;2.33;;;;;;;7.85;85.47;96648.00;2033157;29;20055;-44
2022/07/11 04:09:59;;;;;;;8.80;2.47;;;;;;;7.90;85.85;96648.72;2032581;29;20055;-44
2022/07/11 04:11:00;;;;;;;5.97;2.25;;;;;;;7.87;85.41;96656.56;2025189;29;20048;-44
2022/07/11 04:12:02;;;;;;;3.22;2.20;;;;;;;7.88;85.66;96657.41;2032784;29;20056;-43
2022/07/11 04:13:03;;;;;;;4.50;2.20;;;;;;;7.82;85.85;96665.34;2033185;29;20075;-46
2022/07/11 04:14:04;;;;;;;3.72;2.45;;;;;;;7.79;86.38;96657.66;2018092;29;20056;-45
2022/07/11 04:15:06;;;;;;;4.43;2.20;;;;;;;7.79;86.48;96660.25;2025560;29;20059;-45
2022/07/11 04:16:07;;;;;;;7.25;2.75;;;;;;;7.76;86.78;96658.59;2041114;29;20059;-46
2022/07/11 04:17:08;;;;;;;9.25;2.67;;;;;;;7.76;86.92;96658.59;2033287;29;20048;-43
2022/07/11 04:18:10;;;;;;;6.03;2.45;;;;;;;7.74;86.74;96656.03;2040769;29;20055;-44
2022/07/11 04:19:11;;;;;;;4.15;2.20;;;;;;;7.77;86.86;96659.44;2040453;29;20047;-43
2022/07/11 04:20:12;;;;;;;4.55;1.95;;;;;;;7.85;86.55;96655.75;2040126;29;20047;-43
2022/07/11 04:21:13;;;;;;;4.72;2.40;;;;;;;7.89;86.08;96667.75;2059204;23;20071;-45
2022/07/11 04:22:15;;;;;;;8.05;2.33;;;;;;;7.86;86.29;96659.22;2035890;29;20055;-42
2022/07/11 04:23:16;;;;;;;4.97;2.40;;;;;;;7.82;86.14;96661.00;2040571;29;20433;-40
2022/07/11 04:24:17;;;;;;;4.10;2.00;;;;;;;7.83;85.97;96661.84;2048551;29;20059;-41
2022/07/11 04:25:19;;;;;;;8.43;2.50;;;;;;;7.87;85.71;96666.06;2048489;29;20050;-40
2022/07/11 04:26:20;;;;;;;4.95;2.80;;;;;;;7.89;85.41;96662.56;2055573;28;20047;-40
2022/07/11 04:27:21;;;;;;;5.57;2.80;;;;;;;7.94;85.18;96667.63;2040222;29;20675;-40
2022/07/11 04:28:23;;;;;;;5.47;2.03;;;;;;;7.93;85.29;96660.75;2033028;29;20048;-40
2022/07/11 04:29:24;;;;;;;6.00;2.70;;;;;;;7.98;84.98;96665.81;2025035;29;20052;-41
2022/07/11 04:30:25;;;;;;;3.67;2.33;;;;;;;7.99;84.92;96667.47;2032792;28;20040;-40
2022/07/11 04:31:26;;;;;;;4.97;2.30;;;;;;;8.00;84.93;96664.88;2032478;29;20055;-40
2022/07/11 04:32:28;;;;;;;5.05;2.47;;;;;;;8.00;84.91;96664.03;2025339;29;20056;-40
2022/07/11 04:33:29;;;;;;;5.63;2.65;;;;;;;8.03;84.87;96664.78;2040660;29;20047;-40
2022/07/11 04:34:30;;;;;;;6.90;2.53;;;;;;;8.05;85.09;96664.75;2048650;29;20055;-39
2022/07/11 04:35:31;;;;;;;7.90;2.72;;;;;;;8.07;84.71;96670.72;2032658;29;20039;-40
2022/07/11 04:36:33;;;;;;;6.20;2.00;;;;;;;8.07;84.54;96662.94;2032974;29;20544;-40
2022/07/11 04:37:34;;;;;;;7.43;2.50;;;;;;;8.07;84.38;96669.00;2032423;29;20044;-39
2022/07/11 04:38:35;;;;;;;4.68;2.10;;;;;;;8.11;84.05;96670.59;2040606;29;20516;-39
2022/07/11 04:39:36;;;;;;;3.60;2.40;;;;;;;8.26;83.06;96668.47;2048411;29;20042;-40
2022/07/11 04:40:37;;;;;;;6.13;2.42;;;;;;;8.29;83.97;96671.00;2040655;29;20043;-39
2022/07/11 04:41:39;;;;;;;4.72;2.20;;;;;;;8.28;83.50;96677.06;2032872;29;20052;-40
2022/07/11 04:42:40;;;;;;;3.38;2.08;;;;;;;8.23;83.57;96679.75;2039814;29;20048;-41
2022/07/11 04:43:41;;;;;;;4.95;2.47;;;;;;;8.23;84.23;96669.41;2040684;29;20055;-40
2022/07/11 04:44:42;;;;;;;5.50;2.80;;;;;;;8.20;84.06;96673.84;2040705;29;20044;-41
2022/07/11 04:45:44;;;;;;;5.82;2.33;;;;;;;8.24;83.91;96675.47;2032775;29;20043;-40
2022/07/11 04:46:45;;;;;;;5.30;2.10;;;;;;;8.20;84.07;96671.25;2024693;29;20049;-41
2022/07/11 04:47:46;;;;;;;6.90;2.65;;;;;;;8.17;83.79;96678.19;2040344;29;20051;-39
2022/07/11 04:48:47;;;;;;;4.60;2.42;;;;;;;8.20;83.68;96679.00;2040676;29;20059;-40
2022/07/11 04:49:51;;;;;;;9.60;2.53;;;;;;;8.18;83.96;96679.91;2040417;29;20059;-41
2022/07/11 04:50:53;;;;;;;4.78;2.45;;;;;;;8.20;83.91;96679.00;2040852;29;20441;-40
2022/07/11 04:51:55;;;;;;;6.45;2.63;;;;;;;8.18;84.08;96679.06;2032776;29;20063;-40
2022/07/11 04:52:56;;;;;;;5.60;2.50;;;;;;;8.20;83.84;96677.25;2032633;29;20067;-39
2022/07/11 04:53:57;;;;;;;6.50;2.47;;;;;;;8.30;83.48;96676.13;2032775;29;20474;-40
2022/07/11 04:54:58;;;;;;;4.45;2.30;;;;;;;8.34;83.39;96677.75;2033115;29;20059;-40
2022/07/11 04:56:00;;;;;;;4.15;2.17;;;;;;;8.36;83.53;96682.88;2032562;29;20063;-39